sensor_id;sensor_type;location;lat;lon;timestamp;temperature;humidity
3660;DHT22;1846;51.482;7.224;2023-06-10T00:02:23;21.20;1.00
3660;DHT22;1846;51.482;7.224;2023-06-10T00:04:50;21.10;1.00
3660;DHT22;1846;51.482;7.224;2023-06-10T00:07:19;21.00;1.30
3660;DHT22;1846;51.482;7.224;2023-06-10T00:09:46;20.90;3.60
3660;DHT22;1846;51.482;7.224;2023-06-10T00:12:13;20.90;6.50
3660;DHT22;1846;51.482;7.224;2023-06-10T00:14:40;20.90;8.10
3660;DHT22;1846;51.482;7.224;2023-06-10T00:17:07;20.90;9.00
3660;DHT22;1846;51.482;7.224;2023-06-10T00:19:35;20.80;10.30
3660;DHT22;1846;51.482;7.224;2023-06-10T00:22:04;20.80;12.10
3660;DHT22;1846;51.482;7.224;2023-06-10T00:24:32;20.80;12.40
3660;DHT22;1846;51.482;7.224;2023-06-10T00:26:59;20.80;11.70
3660;DHT22;1846;51.482;7.224;2023-06-10T00:29:26;20.80;10.70
3660;DHT22;1846;51.482;7.224;2023-06-10T00:31:52;20.80;11.30
3660;DHT22;1846;51.482;7.224;2023-06-10T00:34:23;20.70;12.40
3660;DHT22;1846;51.482;7.224;2023-06-10T00:36:50;20.70;13.10
3660;DHT22;1846;51.482;7.224;2023-06-10T00:39:17;20.70;14.70
3660;DHT22;1846;51.482;7.224;2023-06-10T00:41:45;20.60;14.60
3660;DHT22;1846;51.482;7.224;2023-06-10T00:44:12;20.60;15.80
3660;DHT22;1846;51.482;7.224;2023-06-10T00:46:38;20.70;14.60
3660;DHT22;1846;51.482;7.224;2023-06-10T00:49:06;20.60;14.70
3660;DHT22;1846;51.482;7.224;2023-06-10T00:51:33;20.60;14.80
3660;DHT22;1846;51.482;7.224;2023-06-10T00:54:04;20.60;14.30
3660;DHT22;1846;51.482;7.224;2023-06-10T00:56:32;20.70;22.10
3660;DHT22;1846;51.482;7.224;2023-06-10T00:59:01;20.60;14.40
3660;DHT22;1846;51.482;7.224;2023-06-10T01:01:28;20.60;14.20
3660;DHT22;1846;51.482;7.224;2023-06-10T01:03:55;20.60;14.40
3660;DHT22;1846;51.482;7.224;2023-06-10T01:06:30;20.60;14.80
3660;DHT22;1846;51.482;7.224;2023-06-10T01:09:09;20.60;14.70
3660;DHT22;1846;51.482;7.224;2023-06-10T01:11:58;20.50;17.20
3660;DHT22;1846;51.482;7.224;2023-06-10T01:14:27;20.50;17.90
3660;DHT22;1846;51.482;7.224;2023-06-10T01:16:57;20.60;20.30
3660;DHT22;1846;51.482;7.224;2023-06-10T01:19:25;20.50;22.10
3660;DHT22;1846;51.482;7.224;2023-06-10T01:21:55;20.40;23.80
3660;DHT22;1846;51.482;7.224;2023-06-10T01:24:22;20.40;25.10
3660;DHT22;1846;51.482;7.224;2023-06-10T01:26:51;20.30;28.90
3660;DHT22;1846;51.482;7.224;2023-06-10T01:29:21;20.30;30.40
3660;DHT22;1846;51.482;7.224;2023-06-10T01:31:56;20.30;30.30
3660;DHT22;1846;51.482;7.224;2023-06-10T01:34:26;20.30;31.20
3660;DHT22;1846;51.482;7.224;2023-06-10T01:36:57;20.20;34.80
3660;DHT22;1846;51.482;7.224;2023-06-10T01:39:27;20.20;38.80
3660;DHT22;1846;51.482;7.224;2023-06-10T01:41:54;20.10;41.80
3660;DHT22;1846;51.482;7.224;2023-06-10T01:44:23;20.10;40.50
3660;DHT22;1846;51.482;7.224;2023-06-10T01:46:50;20.10;41.20
3660;DHT22;1846;51.482;7.224;2023-06-10T01:49:17;20.00;44.90
3660;DHT22;1846;51.482;7.224;2023-06-10T01:51:44;19.90;49.40
3660;DHT22;1846;51.482;7.224;2023-06-10T01:54:12;19.90;50.60
3660;DHT22;1846;51.482;7.224;2023-06-10T01:56:39;19.90;52.30
3660;DHT22;1846;51.482;7.224;2023-06-10T01:59:06;19.90;55.70
3660;DHT22;1846;51.482;7.224;2023-06-10T02:01:33;19.80;58.20
3660;DHT22;1846;51.482;7.224;2023-06-10T02:04:00;19.70;66.00
3660;DHT22;1846;51.482;7.224;2023-06-10T02:06:27;19.70;69.50
3660;DHT22;1846;51.482;7.224;2023-06-10T02:08:54;19.70;72.30
3660;DHT22;1846;51.482;7.224;2023-06-10T02:11:22;19.60;83.90
3660;DHT22;1846;51.482;7.224;2023-06-10T02:13:49;19.60;87.50
3660;DHT22;1846;51.482;7.224;2023-06-10T02:16:16;19.50;96.00
3660;DHT22;1846;51.482;7.224;2023-06-10T02:18:43;19.50;99.30
3660;DHT22;1846;51.482;7.224;2023-06-10T02:21:11;19.50;99.90
3660;DHT22;1846;51.482;7.224;2023-06-10T02:23:38;19.40;99.90
3660;DHT22;1846;51.482;7.224;2023-06-10T02:26:05;19.40;99.90
3660;DHT22;1846;51.482;7.224;2023-06-10T02:28:34;19.40;99.90
3660;DHT22;1846;51.482;7.224;2023-06-10T02:31:01;19.40;99.90
3660;DHT22;1846;51.482;7.224;2023-06-10T02:33:28;19.30;99.90
3660;DHT22;1846;51.482;7.224;2023-06-10T02:35:55;19.30;99.90
3660;DHT22;1846;51.482;7.224;2023-06-10T02:38:22;19.30;99.90
3660;DHT22;1846;51.482;7.224;2023-06-10T02:40:49;19.20;99.90
3660;DHT22;1846;51.482;7.224;2023-06-10T02:43:15;19.20;99.90
3660;DHT22;1846;51.482;7.224;2023-06-10T02:45:44;19.20;99.90
3660;DHT22;1846;51.482;7.224;2023-06-10T02:48:11;19.20;99.90
3660;DHT22;1846;51.482;7.224;2023-06-10T02:50:37;19.10;99.90
3660;DHT22;1846;51.482;7.224;2023-06-10T02:53:07;19.10;99.90
3660;DHT22;1846;51.482;7.224;2023-06-10T02:55:34;19.10;99.90
3660;DHT22;1846;51.482;7.224;2023-06-10T02:58:01;19.00;99.90
3660;DHT22;1846;51.482;7.224;2023-06-10T03:00:28;19.00;99.90
3660;DHT22;1846;51.482;7.224;2023-06-10T03:02:56;19.00;99.90
3660;DHT22;1846;51.482;7.224;2023-06-10T03:05:23;18.90;99.90
3660;DHT22;1846;51.482;7.224;2023-06-10T03:07:50;18.90;99.90
3660;DHT22;1846;51.482;7.224;2023-06-10T03:10:17;18.80;99.90
3660;DHT22;1846;51.482;7.224;2023-06-10T03:12:44;18.80;99.90
3660;DHT22;1846;51.482;7.224;2023-06-10T03:15:11;18.80;99.90
3660;DHT22;1846;51.482;7.224;2023-06-10T03:17:38;18.80;99.90
3660;DHT22;1846;51.482;7.224;2023-06-10T03:20:08;18.80;99.90
3660;DHT22;1846;51.482;7.224;2023-06-10T03:22:35;18.70;99.90
3660;DHT22;1846;51.482;7.224;2023-06-10T03:25:04;18.70;99.90
3660;DHT22;1846;51.482;7.224;2023-06-10T03:27:31;18.70;99.90
3660;DHT22;1846;51.482;7.224;2023-06-10T03:29:58;18.70;99.90
3660;DHT22;1846;51.482;7.224;2023-06-10T03:32:25;18.70;99.90
3660;DHT22;1846;51.482;7.224;2023-06-10T03:34:52;18.70;99.90
3660;DHT22;1846;51.482;7.224;2023-06-10T03:37:23;18.60;99.90
3660;DHT22;1846;51.482;7.224;2023-06-10T03:39:50;18.60;99.90
3660;DHT22;1846;51.482;7.224;2023-06-10T03:42:17;18.60;99.90
3660;DHT22;1846;51.482;7.224;2023-06-10T03:44:44;18.60;99.90
3660;DHT22;1846;51.482;7.224;2023-06-10T03:47:11;18.50;99.90
3660;DHT22;1846;51.482;7.224;2023-06-10T03:49:38;18.60;99.90
3660;DHT22;1846;51.482;7.224;2023-06-10T03:52:06;18.60;99.90
3660;DHT22;1846;51.482;7.224;2023-06-10T03:54:34;18.60;99.90
3660;DHT22;1846;51.482;7.224;2023-06-10T03:57:01;18.70;99.90
3660;DHT22;1846;51.482;7.224;2023-06-10T03:59:28;18.70;99.90
3660;DHT22;1846;51.482;7.224;2023-06-10T04:01:55;18.70;99.90
3660;DHT22;1846;51.482;7.224;2023-06-10T04:04:23;18.60;99.90
3660;DHT22;1846;51.482;7.224;2023-06-10T04:06:50;18.60;99.90
3660;DHT22;1846;51.482;7.224;2023-06-10T04:09:17;18.70;99.90
3660;DHT22;1846;51.482;7.224;2023-06-10T04:11:45;18.70;99.90
3660;DHT22;1846;51.482;7.224;2023-06-10T04:14:13;18.70;99.90
3660;DHT22;1846;51.482;7.224;2023-06-10T04:16:40;18.70;99.90
3660;DHT22;1846;51.482;7.224;2023-06-10T04:19:08;18.70;99.90
3660;DHT22;1846;51.482;7.224;2023-06-10T04:21:35;18.70;99.90
3660;DHT22;1846;51.482;7.224;2023-06-10T04:24:02;18.70;99.90
3660;DHT22;1846;51.482;7.224;2023-06-10T04:26:29;18.70;99.90
3660;DHT22;1846;51.482;7.224;2023-06-10T04:28:57;18.80;99.90
3660;DHT22;1846;51.482;7.224;2023-06-10T04:31:24;18.70;99.90
3660;DHT22;1846;51.482;7.224;2023-06-10T04:33:51;18.70;99.90
3660;DHT22;1846;51.482;7.224;2023-06-10T04:36:19;18.70;99.90
3660;DHT22;1846;51.482;7.224;2023-06-10T04:38:46;18.70;99.90
3660;DHT22;1846;51.482;7.224;2023-06-10T04:41:13;18.70;99.90
3660;DHT22;1846;51.482;7.224;2023-06-10T04:43:39;18.70;99.90
3660;DHT22;1846;51.482;7.224;2023-06-10T04:46:08;18.70;99.90
3660;DHT22;1846;51.482;7.224;2023-06-10T04:48:35;18.80;99.90
3660;DHT22;1846;51.482;7.224;2023-06-10T04:51:02;18.70;99.90
3660;DHT22;1846;51.482;7.224;2023-06-10T04:53:30;18.70;99.90
3660;DHT22;1846;51.482;7.224;2023-06-10T04:55:57;18.80;99.90
3660;DHT22;1846;51.482;7.224;2023-06-10T04:58:27;18.90;99.90
3660;DHT22;1846;51.482;7.224;2023-06-10T05:00:54;18.90;99.90
3660;DHT22;1846;51.482;7.224;2023-06-10T05:03:22;19.00;99.90
3660;DHT22;1846;51.482;7.224;2023-06-10T05:05:49;19.00;99.90
3660;DHT22;1846;51.482;7.224;2023-06-10T05:08:16;19.00;99.50
3660;DHT22;1846;51.482;7.224;2023-06-10T05:10:43;19.10;98.90
3660;DHT22;1846;51.482;7.224;2023-06-10T05:13:10;19.10;93.40
3660;DHT22;1846;51.482;7.224;2023-06-10T05:15:37;19.10;92.40
3660;DHT22;1846;51.482;7.224;2023-06-10T05:18:04;19.10;91.20
3660;DHT22;1846;51.482;7.224;2023-06-10T05:20:32;19.00;92.10
3660;DHT22;1846;51.482;7.224;2023-06-10T05:22:59;19.10;90.40
3660;DHT22;1846;51.482;7.224;2023-06-10T05:25:26;19.10;85.70
3660;DHT22;1846;51.482;7.224;2023-06-10T05:27:53;19.10;85.60
3660;DHT22;1846;51.482;7.224;2023-06-10T05:30:20;19.20;79.90
3660;DHT22;1846;51.482;7.224;2023-06-10T05:32:48;19.30;68.50
3660;DHT22;1846;51.482;7.224;2023-06-10T05:35:16;19.30;67.30
3660;DHT22;1846;51.482;7.224;2023-06-10T05:37:45;19.30;65.80
3660;DHT22;1846;51.482;7.224;2023-06-10T05:40:12;19.50;59.60
3660;DHT22;1846;51.482;7.224;2023-06-10T05:42:39;19.50;55.10
3660;DHT22;1846;51.482;7.224;2023-06-10T05:45:06;19.60;49.20
3660;DHT22;1846;51.482;7.224;2023-06-10T05:47:33;19.70;49.70
3660;DHT22;1846;51.482;7.224;2023-06-10T05:50:00;19.80;49.30
3660;DHT22;1846;51.482;7.224;2023-06-10T05:52:27;19.80;49.30
3660;DHT22;1846;51.482;7.224;2023-06-10T05:54:56;19.80;56.00
3660;DHT22;1846;51.482;7.224;2023-06-10T05:57:22;19.90;42.10
3660;DHT22;1846;51.482;7.224;2023-06-10T05:59:49;20.00;38.70
3660;DHT22;1846;51.482;7.224;2023-06-10T06:02:16;20.10;33.20
3660;DHT22;1846;51.482;7.224;2023-06-10T06:04:43;20.20;30.50
3660;DHT22;1846;51.482;7.224;2023-06-10T06:07:10;20.20;29.80
3660;DHT22;1846;51.482;7.224;2023-06-10T06:09:37;20.30;29.40
3660;DHT22;1846;51.482;7.224;2023-06-10T06:12:06;20.30;29.10
3660;DHT22;1846;51.482;7.224;2023-06-10T06:14:37;20.30;26.80
3660;DHT22;1846;51.482;7.224;2023-06-10T06:17:04;20.40;25.50
3660;DHT22;1846;51.482;7.224;2023-06-10T06:19:31;20.50;23.70
3660;DHT22;1846;51.482;7.224;2023-06-10T06:21:58;20.50;23.30
3660;DHT22;1846;51.482;7.224;2023-06-10T06:24:25;20.60;20.60
3660;DHT22;1846;51.482;7.224;2023-06-10T06:26:52;20.70;19.10
3660;DHT22;1846;51.482;7.224;2023-06-10T06:29:20;20.70;17.90
3660;DHT22;1846;51.482;7.224;2023-06-10T06:31:47;20.80;16.20
3660;DHT22;1846;51.482;7.224;2023-06-10T06:34:14;20.90;14.70
3660;DHT22;1846;51.482;7.224;2023-06-10T06:36:41;21.00;15.90
3660;DHT22;1846;51.482;7.224;2023-06-10T06:39:08;21.10;13.30
3660;DHT22;1846;51.482;7.224;2023-06-10T06:41:35;21.10;12.40
3660;DHT22;1846;51.482;7.224;2023-06-10T06:44:02;21.10;12.10
3660;DHT22;1846;51.482;7.224;2023-06-10T06:46:30;21.20;12.00
3660;DHT22;1846;51.482;7.224;2023-06-10T06:48:57;21.30;10.40
3660;DHT22;1846;51.482;7.224;2023-06-10T06:51:24;21.40;10.50
3660;DHT22;1846;51.482;7.224;2023-06-10T06:53:51;21.50;9.00
3660;DHT22;1846;51.482;7.224;2023-06-10T06:56:20;21.60;7.20
3660;DHT22;1846;51.482;7.224;2023-06-10T06:58:47;21.50;6.80
3660;DHT22;1846;51.482;7.224;2023-06-10T07:01:14;21.70;6.00
3660;DHT22;1846;51.482;7.224;2023-06-10T07:03:42;21.70;4.90
3660;DHT22;1846;51.482;7.224;2023-06-10T07:06:09;21.80;5.00
3660;DHT22;1846;51.482;7.224;2023-06-10T07:08:36;21.80;4.70
3660;DHT22;1846;51.482;7.224;2023-06-10T07:11:03;21.70;4.50
3660;DHT22;1846;51.482;7.224;2023-06-10T07:13:30;21.80;5.20
3660;DHT22;1846;51.482;7.224;2023-06-10T07:15:57;22.00;5.00
3660;DHT22;1846;51.482;7.224;2023-06-10T07:18:24;22.00;4.90
3660;DHT22;1846;51.482;7.224;2023-06-10T07:20:52;22.10;4.80
3660;DHT22;1846;51.482;7.224;2023-06-10T07:23:19;22.30;5.50
3660;DHT22;1846;51.482;7.224;2023-06-10T07:25:46;22.40;5.90
3660;DHT22;1846;51.482;7.224;2023-06-10T07:28:13;22.40;4.70
3660;DHT22;1846;51.482;7.224;2023-06-10T07:30:40;22.50;5.00
3660;DHT22;1846;51.482;7.224;2023-06-10T07:33:07;22.60;4.50
3660;DHT22;1846;51.482;7.224;2023-06-10T07:35:36;22.60;3.50
3660;DHT22;1846;51.482;7.224;2023-06-10T07:38:04;22.70;2.50
3660;DHT22;1846;51.482;7.224;2023-06-10T07:40:31;22.70;2.90
3660;DHT22;1846;51.482;7.224;2023-06-10T07:42:58;22.80;2.20
3660;DHT22;1846;51.482;7.224;2023-06-10T07:45:25;22.90;1.80
3660;DHT22;1846;51.482;7.224;2023-06-10T07:47:52;23.00;1.90
3660;DHT22;1846;51.482;7.224;2023-06-10T07:50:19;23.10;1.00
3660;DHT22;1846;51.482;7.224;2023-06-10T07:52:46;23.20;1.00
3660;DHT22;1846;51.482;7.224;2023-06-10T07:55:14;23.20;1.00
3660;DHT22;1846;51.482;7.224;2023-06-10T07:57:41;23.30;1.00
3660;DHT22;1846;51.482;7.224;2023-06-10T08:00:08;23.40;1.00
3660;DHT22;1846;51.482;7.224;2023-06-10T08:02:37;23.50;1.00
3660;DHT22;1846;51.482;7.224;2023-06-10T08:05:05;23.60;1.00
3660;DHT22;1846;51.482;7.224;2023-06-10T08:07:32;23.70;1.00
3660;DHT22;1846;51.482;7.224;2023-06-10T08:09:58;23.80;1.00
3660;DHT22;1846;51.482;7.224;2023-06-10T08:12:27;24.00;1.00
3660;DHT22;1846;51.482;7.224;2023-06-10T08:14:54;24.20;1.10
3660;DHT22;1846;51.482;7.224;2023-06-10T08:17:21;24.30;1.60
3660;DHT22;1846;51.482;7.224;2023-06-10T08:19:48;24.50;1.60
3660;DHT22;1846;51.482;7.224;2023-06-10T08:22:15;24.60;2.40
3660;DHT22;1846;51.482;7.224;2023-06-10T08:24:42;24.80;2.10
3660;DHT22;1846;51.482;7.224;2023-06-10T08:27:09;24.80;2.50
3660;DHT22;1846;51.482;7.224;2023-06-10T08:29:37;25.00;2.60
3660;DHT22;1846;51.482;7.224;2023-06-10T08:32:04;25.00;2.60
3660;DHT22;1846;51.482;7.224;2023-06-10T08:34:33;25.20;1.70
3660;DHT22;1846;51.482;7.224;2023-06-10T08:37:00;25.20;1.80
3660;DHT22;1846;51.482;7.224;2023-06-10T08:39:27;25.30;1.60
3660;DHT22;1846;51.482;7.224;2023-06-10T08:42:06;25.40;2.40
3660;DHT22;1846;51.482;7.224;2023-06-10T08:44:37;25.60;2.80
3660;DHT22;1846;51.482;7.224;2023-06-10T08:47:08;25.70;3.00
3660;DHT22;1846;51.482;7.224;2023-06-10T08:49:42;25.80;3.50
3660;DHT22;1846;51.482;7.224;2023-06-10T08:52:13;25.90;3.70
3660;DHT22;1846;51.482;7.224;2023-06-10T08:54:43;25.90;4.20
3660;DHT22;1846;51.482;7.224;2023-06-10T08:57:10;26.00;4.90
3660;DHT22;1846;51.482;7.224;2023-06-10T08:59:38;26.00;3.70
3660;DHT22;1846;51.482;7.224;2023-06-10T09:02:08;26.10;4.20
3660;DHT22;1846;51.482;7.224;2023-06-10T09:04:36;26.20;4.00
3660;DHT22;1846;51.482;7.224;2023-06-10T09:07:04;26.20;3.30
3660;DHT22;1846;51.482;7.224;2023-06-10T09:09:32;26.20;4.00
3660;DHT22;1846;51.482;7.224;2023-06-10T09:12:01;26.20;3.20
3660;DHT22;1846;51.482;7.224;2023-06-10T09:14:28;26.20;2.50
3660;DHT22;1846;51.482;7.224;2023-06-10T09:16:57;26.20;2.00
3660;DHT22;1846;51.482;7.224;2023-06-10T09:19:24;26.10;2.10
3660;DHT22;1846;51.482;7.224;2023-06-10T09:21:51;26.20;2.00
3660;DHT22;1846;51.482;7.224;2023-06-10T09:24:18;26.30;2.30
3660;DHT22;1846;51.482;7.224;2023-06-10T09:26:45;26.20;1.60
3660;DHT22;1846;51.482;7.224;2023-06-10T09:29:12;26.20;1.70
3660;DHT22;1846;51.482;7.224;2023-06-10T09:31:40;26.20;1.00
3660;DHT22;1846;51.482;7.224;2023-06-10T09:34:10;26.10;1.00
3660;DHT22;1846;51.482;7.224;2023-06-10T09:36:38;26.30;1.00
3660;DHT22;1846;51.482;7.224;2023-06-10T09:39:14;26.30;1.00
3660;DHT22;1846;51.482;7.224;2023-06-10T09:41:42;26.20;1.00
3660;DHT22;1846;51.482;7.224;2023-06-10T09:44:12;26.30;1.00
3660;DHT22;1846;51.482;7.224;2023-06-10T09:46:40;26.40;1.00
3660;DHT22;1846;51.482;7.224;2023-06-10T09:49:08;26.40;1.00
3660;DHT22;1846;51.482;7.224;2023-06-10T09:51:35;26.50;1.00
3660;DHT22;1846;51.482;7.224;2023-06-10T09:54:03;26.70;1.00
3660;DHT22;1846;51.482;7.224;2023-06-10T09:56:34;26.80;1.00
3660;DHT22;1846;51.482;7.224;2023-06-10T09:59:02;26.90;1.00
3660;DHT22;1846;51.482;7.224;2023-06-10T10:01:30;27.00;1.00
3660;DHT22;1846;51.482;7.224;2023-06-10T10:03:58;27.00;1.00
3660;DHT22;1846;51.482;7.224;2023-06-10T10:06:27;27.20;1.00
3660;DHT22;1846;51.482;7.224;2023-06-10T10:08:55;27.40;1.00
3660;DHT22;1846;51.482;7.224;2023-06-10T10:11:23;27.50;1.00
3660;DHT22;1846;51.482;7.224;2023-06-10T10:13:52;27.60;1.00
3660;DHT22;1846;51.482;7.224;2023-06-10T10:16:21;27.70;1.00
3660;DHT22;1846;51.482;7.224;2023-06-10T10:18:54;27.80;1.00
3660;DHT22;1846;51.482;7.224;2023-06-10T10:21:24;28.30;1.00
3660;DHT22;1846;51.482;7.224;2023-06-10T10:24:02;29.20;3.50
3660;DHT22;1846;51.482;7.224;2023-06-10T10:26:33;30.30;6.70
3660;DHT22;1846;51.482;7.224;2023-06-10T10:29:07;31.30;11.20
3660;DHT22;1846;51.482;7.224;2023-06-10T10:31:36;32.10;12.60
3660;DHT22;1846;51.482;7.224;2023-06-10T10:34:07;32.60;12.20
3660;DHT22;1846;51.482;7.224;2023-06-10T10:36:35;33.40;12.50
3660;DHT22;1846;51.482;7.224;2023-06-10T10:39:05;33.80;13.30
3660;DHT22;1846;51.482;7.224;2023-06-10T10:41:33;34.20;13.10
3660;DHT22;1846;51.482;7.224;2023-06-10T10:44:01;34.80;14.20
3660;DHT22;1846;51.482;7.224;2023-06-10T10:46:31;35.40;15.00
3660;DHT22;1846;51.482;7.224;2023-06-10T10:49:08;35.40;15.10
3660;DHT22;1846;51.482;7.224;2023-06-10T10:51:35;35.80;15.30
3660;DHT22;1846;51.482;7.224;2023-06-10T10:54:13;36.50;17.30
3660;DHT22;1846;51.482;7.224;2023-06-10T10:57:15;37.60;23.00
3660;DHT22;1846;51.482;7.224;2023-06-10T10:59:52;38.60;27.10
3660;DHT22;1846;51.482;7.224;2023-06-10T11:02:34;38.70;24.90
3660;DHT22;1846;51.482;7.224;2023-06-10T11:05:01;38.20;20.90
3660;DHT22;1846;51.482;7.224;2023-06-10T11:07:30;37.90;18.20
3660;DHT22;1846;51.482;7.224;2023-06-10T11:10:01;38.10;18.90
3660;DHT22;1846;51.482;7.224;2023-06-10T11:12:50;37.90;16.60
3660;DHT22;1846;51.482;7.224;2023-06-10T11:15:19;38.30;18.80
3660;DHT22;1846;51.482;7.224;2023-06-10T11:18:18;38.50;19.40
3660;DHT22;1846;51.482;7.224;2023-06-10T11:20:54;38.50;17.20
3660;DHT22;1846;51.482;7.224;2023-06-10T11:23:37;38.20;17.30
3660;DHT22;1846;51.482;7.224;2023-06-10T11:26:13;37.90;14.80
3660;DHT22;1846;51.482;7.224;2023-06-10T11:28:41;38.10;15.30
3660;DHT22;1846;51.482;7.224;2023-06-10T11:31:11;38.20;15.50
3660;DHT22;1846;51.482;7.224;2023-06-10T11:33:46;38.00;12.90
3660;DHT22;1846;51.482;7.224;2023-06-10T11:36:13;37.60;10.40
3660;DHT22;1846;51.482;7.224;2023-06-10T11:38:40;38.30;14.10
3660;DHT22;1846;51.482;7.224;2023-06-10T11:41:07;38.70;15.90
3660;DHT22;1846;51.482;7.224;2023-06-10T11:43:36;38.90;14.90
3660;DHT22;1846;51.482;7.224;2023-06-10T11:46:03;39.10;15.70
3660;DHT22;1846;51.482;7.224;2023-06-10T11:48:33;39.80;18.00
3660;DHT22;1846;51.482;7.224;2023-06-10T11:51:00;40.40;20.70
3660;DHT22;1846;51.482;7.224;2023-06-10T11:53:30;40.50;18.40
3660;DHT22;1846;51.482;7.224;2023-06-10T11:55:57;40.10;17.00
3660;DHT22;1846;51.482;7.224;2023-06-10T11:58:24;40.10;16.60
3660;DHT22;1846;51.482;7.224;2023-06-10T12:00:55;40.50;18.90
3660;DHT22;1846;51.482;7.224;2023-06-10T12:03:24;40.90;19.20
3660;DHT22;1846;51.482;7.224;2023-06-10T12:05:58;40.70;17.80
3660;DHT22;1846;51.482;7.224;2023-06-10T12:08:25;41.10;18.10
3660;DHT22;1846;51.482;7.224;2023-06-10T12:10:53;41.30;19.90
3660;DHT22;1846;51.482;7.224;2023-06-10T12:13:21;41.40;19.10
3660;DHT22;1846;51.482;7.224;2023-06-10T12:15:49;40.50;9.20
3660;DHT22;1846;51.482;7.224;2023-06-10T12:18:18;40.00;8.60
3660;DHT22;1846;51.482;7.224;2023-06-10T12:20:45;39.70;8.70
3660;DHT22;1846;51.482;7.224;2023-06-10T12:23:13;39.90;9.70
3660;DHT22;1846;51.482;7.224;2023-06-10T12:25:49;40.10;10.30
3660;DHT22;1846;51.482;7.224;2023-06-10T12:28:17;40.10;11.10
3660;DHT22;1846;51.482;7.224;2023-06-10T12:30:47;39.90;11.10
3660;DHT22;1846;51.482;7.224;2023-06-10T12:33:18;38.80;3.70
3660;DHT22;1846;51.482;7.224;2023-06-10T12:35:49;38.10;1.00
3660;DHT22;1846;51.482;7.224;2023-06-10T12:38:21;38.40;1.00
3660;DHT22;1846;51.482;7.224;2023-06-10T12:40:50;38.40;1.00
3660;DHT22;1846;51.482;7.224;2023-06-10T12:43:19;38.50;1.40
3660;DHT22;1846;51.482;7.224;2023-06-10T12:45:49;38.60;1.00
3660;DHT22;1846;51.482;7.224;2023-06-10T12:48:20;38.40;1.00
3660;DHT22;1846;51.482;7.224;2023-06-10T12:50:50;38.40;1.00
3660;DHT22;1846;51.482;7.224;2023-06-10T12:53:18;38.30;1.00
3660;DHT22;1846;51.482;7.224;2023-06-10T12:55:46;37.60;1.00
3660;DHT22;1846;51.482;7.224;2023-06-10T12:58:13;36.90;1.00
3660;DHT22;1846;51.482;7.224;2023-06-10T13:00:40;36.40;1.00
3660;DHT22;1846;51.482;7.224;2023-06-10T13:03:08;36.10;1.00
3660;DHT22;1846;51.482;7.224;2023-06-10T13:05:38;35.70;1.00
3660;DHT22;1846;51.482;7.224;2023-06-10T13:08:05;35.10;1.00
3660;DHT22;1846;51.482;7.224;2023-06-10T13:10:36;34.50;1.00
3660;DHT22;1846;51.482;7.224;2023-06-10T13:13:05;33.90;1.00
3660;DHT22;1846;51.482;7.224;2023-06-10T13:15:35;33.50;1.00
3660;DHT22;1846;51.482;7.224;2023-06-10T13:18:02;32.80;1.00
3660;DHT22;1846;51.482;7.224;2023-06-10T13:20:30;32.70;1.00
3660;DHT22;1846;51.482;7.224;2023-06-10T13:22:58;32.70;1.00
3660;DHT22;1846;51.482;7.224;2023-06-10T13:25:25;32.60;1.00
3660;DHT22;1846;51.482;7.224;2023-06-10T13:27:52;32.30;1.00
3660;DHT22;1846;51.482;7.224;2023-06-10T13:30:20;32.10;1.00
3660;DHT22;1846;51.482;7.224;2023-06-10T13:32:47;32.00;1.00
3660;DHT22;1846;51.482;7.224;2023-06-10T13:35:14;31.70;1.00
3660;DHT22;1846;51.482;7.224;2023-06-10T13:37:41;31.70;1.00
3660;DHT22;1846;51.482;7.224;2023-06-10T13:40:10;31.60;1.00
3660;DHT22;1846;51.482;7.224;2023-06-10T13:42:37;31.50;1.00
3660;DHT22;1846;51.482;7.224;2023-06-10T13:45:06;31.30;1.00
3660;DHT22;1846;51.482;7.224;2023-06-10T13:47:34;31.30;1.00
3660;DHT22;1846;51.482;7.224;2023-06-10T13:50:01;31.40;1.00
3660;DHT22;1846;51.482;7.224;2023-06-10T13:52:28;31.50;1.00
3660;DHT22;1846;51.482;7.224;2023-06-10T13:54:55;31.50;1.00
3660;DHT22;1846;51.482;7.224;2023-06-10T13:57:24;31.50;1.00
3660;DHT22;1846;51.482;7.224;2023-06-10T13:59:51;31.50;1.00
3660;DHT22;1846;51.482;7.224;2023-06-10T14:02:18;31.50;1.00
3660;DHT22;1846;51.482;7.224;2023-06-10T14:04:45;31.20;1.00
3660;DHT22;1846;51.482;7.224;2023-06-10T14:07:12;31.10;1.00
3660;DHT22;1846;51.482;7.224;2023-06-10T14:09:39;31.00;1.00
3660;DHT22;1846;51.482;7.224;2023-06-10T14:12:07;31.00;1.00
3660;DHT22;1846;51.482;7.224;2023-06-10T14:14:36;30.90;1.00
3660;DHT22;1846;51.482;7.224;2023-06-10T14:17:03;30.70;1.00
3660;DHT22;1846;51.482;7.224;2023-06-10T14:19:30;30.70;1.00
3660;DHT22;1846;51.482;7.224;2023-06-10T14:21:57;30.60;1.00
3660;DHT22;1846;51.482;7.224;2023-06-10T14:24:24;30.60;1.00
3660;DHT22;1846;51.482;7.224;2023-06-10T14:26:51;30.50;1.00
3660;DHT22;1846;51.482;7.224;2023-06-10T14:29:18;30.60;1.00
3660;DHT22;1846;51.482;7.224;2023-06-10T14:31:47;30.70;1.00
3660;DHT22;1846;51.482;7.224;2023-06-10T14:34:14;30.70;1.00
3660;DHT22;1846;51.482;7.224;2023-06-10T14:36:41;30.70;1.00
3660;DHT22;1846;51.482;7.224;2023-06-10T14:39:08;30.70;1.00
3660;DHT22;1846;51.482;7.224;2023-06-10T14:41:35;30.60;1.00
3660;DHT22;1846;51.482;7.224;2023-06-10T14:44:02;30.50;1.00
3660;DHT22;1846;51.482;7.224;2023-06-10T14:46:29;30.60;1.00
3660;DHT22;1846;51.482;7.224;2023-06-10T14:48:57;30.60;1.00
3660;DHT22;1846;51.482;7.224;2023-06-10T14:51:25;30.60;1.00
3660;DHT22;1846;51.482;7.224;2023-06-10T14:53:52;30.50;1.00
3660;DHT22;1846;51.482;7.224;2023-06-10T14:56:19;30.40;1.00
3660;DHT22;1846;51.482;7.224;2023-06-10T14:58:46;30.30;1.00
3660;DHT22;1846;51.482;7.224;2023-06-10T15:01:13;30.20;1.00
3660;DHT22;1846;51.482;7.224;2023-06-10T15:03:39;30.20;1.00
3660;DHT22;1846;51.482;7.224;2023-06-10T15:06:08;30.30;1.00
3660;DHT22;1846;51.482;7.224;2023-06-10T15:08:34;30.20;1.00
3660;DHT22;1846;51.482;7.224;2023-06-10T15:11:01;30.20;1.00
3660;DHT22;1846;51.482;7.224;2023-06-10T15:13:28;30.20;1.00
3660;DHT22;1846;51.482;7.224;2023-06-10T15:15:55;30.30;1.00
3660;DHT22;1846;51.482;7.224;2023-06-10T15:18:22;30.40;1.00
3660;DHT22;1846;51.482;7.224;2023-06-10T15:20:49;30.30;1.00
3660;DHT22;1846;51.482;7.224;2023-06-10T15:23:17;30.30;1.00
3660;DHT22;1846;51.482;7.224;2023-06-10T15:25:45;30.20;1.00
3660;DHT22;1846;51.482;7.224;2023-06-10T15:28:12;30.20;1.00
3660;DHT22;1846;51.482;7.224;2023-06-10T15:30:39;30.10;1.00
3660;DHT22;1846;51.482;7.224;2023-06-10T15:33:06;30.10;1.00
3660;DHT22;1846;51.482;7.224;2023-06-10T15:35:33;30.00;1.00
3660;DHT22;1846;51.482;7.224;2023-06-10T15:38:00;30.00;1.00
3660;DHT22;1846;51.482;7.224;2023-06-10T15:40:28;30.00;1.00
3660;DHT22;1846;51.482;7.224;2023-06-10T15:42:55;30.00;1.00
3660;DHT22;1846;51.482;7.224;2023-06-10T15:45:22;29.90;1.00
3660;DHT22;1846;51.482;7.224;2023-06-10T15:47:49;29.90;1.00
3660;DHT22;1846;51.482;7.224;2023-06-10T15:50:16;30.00;1.00
3660;DHT22;1846;51.482;7.224;2023-06-10T15:52:43;29.90;1.00
3660;DHT22;1846;51.482;7.224;2023-06-10T15:55:10;30.00;1.00
3660;DHT22;1846;51.482;7.224;2023-06-10T15:57:39;29.90;1.00
3660;DHT22;1846;51.482;7.224;2023-06-10T16:00:06;29.70;1.00
3660;DHT22;1846;51.482;7.224;2023-06-10T16:02:34;29.70;1.00
3660;DHT22;1846;51.482;7.224;2023-06-10T16:05:01;29.70;1.00
3660;DHT22;1846;51.482;7.224;2023-06-10T16:07:28;29.70;1.00
3660;DHT22;1846;51.482;7.224;2023-06-10T16:09:55;29.70;1.00
3660;DHT22;1846;51.482;7.224;2023-06-10T16:12:21;29.70;1.00
3660;DHT22;1846;51.482;7.224;2023-06-10T16:14:50;29.60;1.00
3660;DHT22;1846;51.482;7.224;2023-06-10T16:17:16;29.60;1.00